createdAt,value
2023-03-11T00:00:34.415Z,0.80
2023-03-11T00:03:02.957Z,1.00
2023-03-11T00:05:33.593Z,1.20
2023-03-11T00:08:01.182Z,1.17
2023-03-11T00:10:30.878Z,1.00
2023-03-11T00:12:59.050Z,1.00
2023-03-11T00:15:26.740Z,1.00
2023-03-11T00:17:54.086Z,1.10
2023-03-11T00:20:27.730Z,1.10
2023-03-11T00:22:55.304Z,0.93
2023-03-11T00:25:24.552Z,0.80
2023-03-11T00:27:51.325Z,0.90
2023-03-11T00:30:19.528Z,1.10
2023-03-11T00:32:48.737Z,0.90
2023-03-11T00:35:18.941Z,0.80
2023-03-11T00:37:47.315Z,1.10
2023-03-11T00:40:20.184Z,0.93
2023-03-11T00:42:47.091Z,1.10
2023-03-11T00:45:14.699Z,0.90
2023-03-11T00:47:42.176Z,1.00
2023-03-11T00:50:12.192Z,1.20
2023-03-11T00:52:38.905Z,2.17
2023-03-11T00:55:06.667Z,1.40
2023-03-11T00:57:34.556Z,1.47
2023-03-11T01:00:01.245Z,1.67
2023-03-11T01:02:28.038Z,2.00
2023-03-11T01:04:56.545Z,1.80
2023-03-11T01:07:23.458Z,1.30
2023-03-11T01:09:50.135Z,1.10
2023-03-11T01:12:16.875Z,1.40
2023-03-11T01:14:43.676Z,1.00
2023-03-11T01:17:10.397Z,1.10
2023-03-11T01:19:37.075Z,0.90
2023-03-11T01:22:03.945Z,1.00
2023-03-11T01:24:30.593Z,0.80
2023-03-11T01:26:57.262Z,0.80
2023-03-11T01:29:24.804Z,0.93
2023-03-11T01:31:51.578Z,0.93
2023-03-11T01:34:18.331Z,0.97
2023-03-11T01:36:44.994Z,1.00
2023-03-11T01:39:11.870Z,1.00
2023-03-11T01:41:38.549Z,0.80
2023-03-11T01:44:05.772Z,1.40
2023-03-11T01:47:00.044Z,1.37
2023-03-11T01:49:32.754Z,1.07
2023-03-11T01:52:07.775Z,1.17
2023-03-11T01:54:41.446Z,1.10
2023-03-11T01:57:13.407Z,0.97
2023-03-11T01:59:47.208Z,1.10
2023-03-11T02:02:25.376Z,0.93
2023-03-11T02:04:53.337Z,0.90
2023-03-11T02:07:22.967Z,1.30
2023-03-11T02:09:49.763Z,0.87
2023-03-11T02:12:16.683Z,1.07
2023-03-11T02:14:48.351Z,1.00
2023-03-11T02:17:15.520Z,1.20
2023-03-11T02:20:07.557Z,1.50
2023-03-11T02:22:34.835Z,1.10
2023-03-11T02:25:11.812Z,1.17
2023-03-11T02:27:43.419Z,1.00
2023-03-11T02:30:12.985Z,0.93
2023-03-11T02:32:42.928Z,1.10
2023-03-11T02:35:09.881Z,0.90
2023-03-11T02:37:36.871Z,1.10
2023-03-11T02:40:24.752Z,1.20
2023-03-11T02:42:58.181Z,0.90
2023-03-11T02:45:26.538Z,0.90
2023-03-11T02:47:55.608Z,0.90
2023-03-11T02:50:22.850Z,1.03
2023-03-11T02:52:50.165Z,0.90
2023-03-11T02:55:18.088Z,1.33
2023-03-11T02:57:45.191Z,1.00
2023-03-11T03:00:15.737Z,1.23
2023-03-11T03:02:52.115Z,1.40
2023-03-11T03:05:20.728Z,1.00
2023-03-11T03:07:49.142Z,0.83
2023-03-11T03:10:18.789Z,1.37
2023-03-11T03:12:45.981Z,1.20
2023-03-11T03:15:12.782Z,1.10
2023-03-11T03:17:39.651Z,1.07
2023-03-11T03:20:12.561Z,1.23
2023-03-11T03:22:42.847Z,1.40
2023-03-11T03:25:11.723Z,0.87
2023-03-11T03:27:38.976Z,1.40
2023-03-11T03:30:08.189Z,1.17
2023-03-11T03:32:35.691Z,1.20
2023-03-11T03:35:04.670Z,1.20
2023-03-11T03:38:01.144Z,1.07
2023-03-11T03:40:27.918Z,1.20
2023-03-11T03:42:57.094Z,1.10
2023-03-11T03:45:24.479Z,1.00
2023-03-11T03:47:53.035Z,1.10
2023-03-11T03:50:22.013Z,1.20
2023-03-11T03:52:50.554Z,1.30
2023-03-11T03:55:17.594Z,1.00
2023-03-11T03:57:44.260Z,1.17
2023-03-11T04:00:13.518Z,1.30
2023-03-11T04:02:46.218Z,1.70
2023-03-11T04:05:21.942Z,1.20
2023-03-11T04:07:48.725Z,1.60
2023-03-11T04:10:15.709Z,1.00
2023-03-11T04:12:43.183Z,1.40
2023-03-11T04:15:10.584Z,1.30
2023-03-11T04:17:38.762Z,1.67
2023-03-11T04:20:10.362Z,1.40
2023-03-11T04:22:37.118Z,1.50
2023-03-11T04:25:04.979Z,1.43
2023-03-11T04:27:32.632Z,1.57
2023-03-11T04:30:00.219Z,1.50
2023-03-11T04:32:27.055Z,1.50
2023-03-11T04:34:53.736Z,1.50
2023-03-11T04:37:20.515Z,1.20
2023-03-11T04:39:47.478Z,1.50
2023-03-11T04:42:14.240Z,1.70
2023-03-11T04:44:43.312Z,1.57
2023-03-11T04:47:10.299Z,1.70
2023-03-11T04:49:37.180Z,1.97
2023-03-11T04:52:04.254Z,1.87
2023-03-11T04:54:30.978Z,1.70
2023-03-11T04:56:57.712Z,1.70
2023-03-11T04:59:24.744Z,1.70
2023-03-11T05:01:52.270Z,1.20
2023-03-11T05:04:19.339Z,1.70
2023-03-11T05:06:46.330Z,1.40
2023-03-11T05:09:14.087Z,1.50
2023-03-11T05:11:41.073Z,1.47
2023-03-11T05:14:08.506Z,1.73
2023-03-11T05:16:35.580Z,1.80
2023-03-11T05:19:23.740Z,1.70
2023-03-11T05:21:50.676Z,1.73
2023-03-11T05:24:17.366Z,1.57
2023-03-11T05:26:44.078Z,1.83
2023-03-11T05:29:10.837Z,1.50
2023-03-11T05:31:37.632Z,1.50
2023-03-11T05:34:04.453Z,1.80
2023-03-11T05:36:31.162Z,1.40
2023-03-11T05:38:58.064Z,1.70
2023-03-11T05:41:24.885Z,1.60
2023-03-11T05:43:52.270Z,1.50
2023-03-11T05:46:20.539Z,1.60
2023-03-11T05:48:47.369Z,1.40
2023-03-11T05:51:14.707Z,1.57
2023-03-11T05:53:48.457Z,1.70
2023-03-11T05:56:21.864Z,4.47
2023-03-11T05:58:49.780Z,4.27
2023-03-11T06:01:19.466Z,5.43
2023-03-11T06:03:46.787Z,2.50
2023-03-11T06:06:14.231Z,1.90
2023-03-11T06:08:45.863Z,1.93
2023-03-11T06:11:12.968Z,1.83
2023-03-11T06:13:40.059Z,2.20
2023-03-11T06:16:09.534Z,2.23
2023-03-11T06:18:36.612Z,2.07
2023-03-11T06:21:05.067Z,2.20
2023-03-11T06:23:32.980Z,2.00
2023-03-11T06:26:02.734Z,2.00
2023-03-11T06:28:32.179Z,2.00
2023-03-11T06:31:10.924Z,2.63
2023-03-11T06:33:37.929Z,2.07
2023-03-11T06:36:06.092Z,2.40
2023-03-11T06:38:36.276Z,2.00
2023-03-11T06:41:05.805Z,1.77
2023-03-11T06:43:35.503Z,1.70
2023-03-11T06:46:11.392Z,1.83
2023-03-11T06:48:39.378Z,2.10
2023-03-11T06:51:06.255Z,1.80
2023-03-11T06:53:33.768Z,2.10
2023-03-11T06:56:05.112Z,1.83
2023-03-11T06:58:37.259Z,1.60
2023-03-11T07:01:10.754Z,2.20
2023-03-11T07:03:38.751Z,3.20
2023-03-11T07:06:06.775Z,3.40
2023-03-11T07:08:33.943Z,2.50
2023-03-11T07:11:06.706Z,2.10
2023-03-11T07:13:34.695Z,2.10
2023-03-11T07:16:07.613Z,1.57
2023-03-11T07:18:35.549Z,1.77
2023-03-11T07:21:04.181Z,1.70
2023-03-11T07:23:30.924Z,1.80
2023-03-11T07:25:57.641Z,2.37
2023-03-11T07:28:25.829Z,3.43
2023-03-11T07:30:53.162Z,2.90
2023-03-11T07:33:21.564Z,2.77
2023-03-11T07:35:49.295Z,2.30
2023-03-11T07:38:17.906Z,2.40
2023-03-11T07:40:44.707Z,2.03
2023-03-11T07:43:11.628Z,2.27
2023-03-11T07:45:38.312Z,2.30
2023-03-11T07:48:05.392Z,2.97
2023-03-11T07:50:32.074Z,2.40
2023-03-11T07:52:58.777Z,2.07
2023-03-11T07:55:25.460Z,2.40
2023-03-11T07:57:52.162Z,2.25
2023-03-11T08:00:19.708Z,2.17
2023-03-11T08:02:46.534Z,2.05
2023-03-11T08:05:13.436Z,2.05
2023-03-11T08:07:40.076Z,2.28
2023-03-11T08:10:07.263Z,2.17
2023-03-11T08:12:34.056Z,2.28
2023-03-11T08:15:00.792Z,2.47
2023-03-11T08:17:27.473Z,2.30
2023-03-11T08:19:54.116Z,2.05
2023-03-11T08:22:20.860Z,1.85
2023-03-11T08:24:51.805Z,2.40
2023-03-11T08:27:18.828Z,2.10
2023-03-11T08:29:45.518Z,2.47
2023-03-11T08:32:12.257Z,2.20
2023-03-11T08:34:39.522Z,2.45
2023-03-11T08:37:06.788Z,2.00
2023-03-11T08:39:33.490Z,2.13
2023-03-11T08:42:00.595Z,2.15
2023-03-11T08:44:27.297Z,1.77
2023-03-11T08:46:54.258Z,1.80
2023-03-11T08:49:20.960Z,1.92
2023-03-11T08:51:47.588Z,1.83
2023-03-11T08:54:14.303Z,1.55
2023-03-11T08:56:40.990Z,1.77
2023-03-11T08:59:08.537Z,2.08
2023-03-11T09:01:35.228Z,1.90
2023-03-11T09:04:01.945Z,2.00
2023-03-11T09:06:30.434Z,1.85
2023-03-11T09:08:57.720Z,1.70
2023-03-11T09:11:24.811Z,1.50
2023-03-11T09:13:51.893Z,1.98
2023-03-11T09:16:21.431Z,1.58
2023-03-11T09:18:48.725Z,1.73
2023-03-11T09:21:15.504Z,1.75
2023-03-11T09:23:44.331Z,1.05
2023-03-11T09:26:12.503Z,1.40
2023-03-11T09:28:40.215Z,1.02
2023-03-11T09:31:07.232Z,1.30
2023-03-11T09:33:39.648Z,1.08
2023-03-11T09:36:07.319Z,1.10
2023-03-11T09:38:34.258Z,0.80
2023-03-11T09:41:23.104Z,1.23
2023-03-11T09:43:55.835Z,1.00
2023-03-11T09:46:49.887Z,1.20
2023-03-11T09:49:27.895Z,1.20
2023-03-11T09:52:15.603Z,1.35
2023-03-11T09:54:52.314Z,1.30
2023-03-11T09:57:26.611Z,1.10
2023-03-11T09:59:54.524Z,1.25
2023-03-11T10:02:26.649Z,1.30
2023-03-11T10:05:00.946Z,1.20
2023-03-11T10:07:39.821Z,1.70
2023-03-11T10:10:11.266Z,1.40
2023-03-11T10:12:52.133Z,1.35
2023-03-11T10:15:39.620Z,1.60
2023-03-11T10:18:28.018Z,1.40
2023-03-11T10:20:54.611Z,1.58
2023-03-11T10:23:47.229Z,1.30
2023-03-11T10:26:23.274Z,1.00
2023-03-11T10:29:00.090Z,1.13
2023-03-11T10:31:32.910Z,1.10
2023-03-11T10:34:45.210Z,1.00
2023-03-11T10:37:18.635Z,1.10
2023-03-11T10:39:50.564Z,1.35
2023-03-11T10:42:22.503Z,1.15
2023-03-11T10:44:51.070Z,1.08
2023-03-11T10:47:24.311Z,1.30
2023-03-11T10:49:52.381Z,1.17
2023-03-11T10:52:20.060Z,1.10
2023-03-11T10:54:58.548Z,1.15
2023-03-11T10:57:29.071Z,1.05
2023-03-11T10:59:58.319Z,1.10
2023-03-11T11:02:42.084Z,1.33
2023-03-11T11:05:16.094Z,1.88
2023-03-11T11:07:44.927Z,1.60
2023-03-11T11:10:11.527Z,1.10
2023-03-11T11:13:02.472Z,1.15
2023-03-11T11:15:37.442Z,1.52
2023-03-11T11:18:19.698Z,1.10
2023-03-11T11:21:06.941Z,1.20
2023-03-11T11:23:41.892Z,1.00
2023-03-11T11:26:22.137Z,1.30
2023-03-11T11:29:27.271Z,1.00
2023-03-11T11:32:19.101Z,1.13
2023-03-11T11:34:59.715Z,1.10
2023-03-11T11:37:31.807Z,1.40
2023-03-11T11:40:11.167Z,1.63
2023-03-11T11:42:41.210Z,1.30
2023-03-11T11:45:22.768Z,1.20
2023-03-11T11:47:53.993Z,1.20
2023-03-11T11:50:35.990Z,1.23
2023-03-11T11:53:15.086Z,1.15
2023-03-11T11:55:47.692Z,1.30
2023-03-11T11:58:14.761Z,1.50
2023-03-11T12:01:05.679Z,1.50
2023-03-11T12:03:44.358Z,1.40
2023-03-11T12:06:25.087Z,1.42
2023-03-11T12:09:14.660Z,1.17
2023-03-11T12:11:56.107Z,1.30
2023-03-11T12:14:45.782Z,1.17
2023-03-11T12:17:14.883Z,1.25
2023-03-11T12:19:46.025Z,1.27
2023-03-11T12:22:38.878Z,1.55
2023-03-11T12:25:27.228Z,1.33
2023-03-11T12:28:09.215Z,1.30
2023-03-11T12:30:43.946Z,1.27
2023-03-11T12:33:43.121Z,1.30
2023-03-11T12:36:40.662Z,1.15
2023-03-11T12:39:19.489Z,1.40
2023-03-11T12:41:46.522Z,1.30
2023-03-11T12:44:30.763Z,1.33
2023-03-11T12:47:15.343Z,1.20
2023-03-11T12:50:08.722Z,1.27
2023-03-11T12:52:53.468Z,1.20
2023-03-11T12:55:32.006Z,1.20
2023-03-11T12:58:11.470Z,1.23
2023-03-11T13:01:05.606Z,1.10
2023-03-11T13:03:51.066Z,1.10
2023-03-11T13:06:55.617Z,0.90
2023-03-11T13:09:25.110Z,1.20
2023-03-11T13:11:52.049Z,1.00
2023-03-11T13:14:28.737Z,1.17
2023-03-11T13:16:56.419Z,1.03
2023-03-11T13:19:26.096Z,1.20
2023-03-11T13:21:53.790Z,1.03
2023-03-11T13:24:25.799Z,1.20
2023-03-11T13:27:04.952Z,0.87
2023-03-11T13:29:31.792Z,0.83
2023-03-11T13:32:36.432Z,1.10
2023-03-11T13:35:05.778Z,1.30
2023-03-11T13:37:44.217Z,1.27
2023-03-11T13:40:26.423Z,1.30
2023-03-11T13:42:58.023Z,1.10
2023-03-11T13:45:35.687Z,1.60
2023-03-11T13:48:31.280Z,1.50
2023-03-11T13:51:13.161Z,0.90
2023-03-11T13:53:47.490Z,1.80
2023-03-11T13:56:29.208Z,1.20
2023-03-11T13:59:17.451Z,1.03
2023-03-11T14:01:52.362Z,1.33
2023-03-11T14:04:26.426Z,1.23
2023-03-11T14:06:53.381Z,1.13
2023-03-11T14:09:22.982Z,1.67
2023-03-11T14:11:49.916Z,1.60
2023-03-11T14:14:43.436Z,1.93
2023-03-11T14:17:16.585Z,1.30
2023-03-11T14:20:12.253Z,1.30
2023-03-11T14:22:39.217Z,1.17
2023-03-11T14:25:10.147Z,1.03
2023-03-11T14:27:45.362Z,1.53
2023-03-11T14:30:20.407Z,1.00
2023-03-11T14:32:59.764Z,1.00
2023-03-11T14:35:26.917Z,0.90
2023-03-11T14:37:53.807Z,1.00
2023-03-11T14:40:37.621Z,1.30
2023-03-11T14:43:07.273Z,1.20
2023-03-11T14:45:38.899Z,1.20
2023-03-11T14:48:13.464Z,1.20
2023-03-11T14:50:42.678Z,1.30
2023-03-11T14:53:12.189Z,1.10
2023-03-11T14:55:40.501Z,1.20
2023-03-11T14:58:15.952Z,1.10
2023-03-11T15:00:59.656Z,0.90
2023-03-11T15:03:31.008Z,1.10
2023-03-11T15:06:08.534Z,0.80
2023-03-11T15:08:47.300Z,1.30
2023-03-11T15:11:13.851Z,1.40
2023-03-11T15:13:43.044Z,1.20
2023-03-11T15:16:34.732Z,1.20
2023-03-11T15:19:32.067Z,1.57
2023-03-11T15:22:21.643Z,1.50
2023-03-11T15:24:57.694Z,1.07
2023-03-11T15:27:33.003Z,1.07
2023-03-11T15:30:00.781Z,1.50
2023-03-11T15:32:41.289Z,1.20
2023-03-11T15:35:07.962Z,1.63
2023-03-11T15:37:35.125Z,1.20
2023-03-11T15:40:12.816Z,1.13
2023-03-11T15:42:39.577Z,2.83
2023-03-11T15:45:13.266Z,1.63
2023-03-11T15:47:40.550Z,1.80
2023-03-11T15:50:24.519Z,2.70
2023-03-11T15:52:56.648Z,1.37
2023-03-11T15:55:25.337Z,2.00
2023-03-11T15:58:05.550Z,2.00
2023-03-11T16:00:32.458Z,1.73
2023-03-11T16:02:59.185Z,2.20
2023-03-11T16:05:25.988Z,2.07
2023-03-11T16:07:52.640Z,2.77
2023-03-11T16:10:22.463Z,1.80
2023-03-11T16:12:49.150Z,2.37
2023-03-11T16:15:20.981Z,1.40
2023-03-11T16:17:50.389Z,1.60
2023-03-11T16:20:19.066Z,1.53
2023-03-11T16:22:47.492Z,4.37
2023-03-11T16:25:21.875Z,2.00
2023-03-11T16:27:51.012Z,1.40
2023-03-11T16:30:18.493Z,3.60
2023-03-11T16:32:45.202Z,1.97
2023-03-11T16:35:12.142Z,1.43
2023-03-11T16:37:39.737Z,1.57
2023-03-11T16:40:07.250Z,1.90
2023-03-11T16:42:33.924Z,1.50
2023-03-11T16:45:02.777Z,1.47
2023-03-11T16:47:30.514Z,1.50
2023-03-11T16:49:57.126Z,1.60
2023-03-11T16:52:23.898Z,1.20
2023-03-11T16:54:50.683Z,2.80
2023-03-11T16:57:17.376Z,2.30
2023-03-11T16:59:44.214Z,1.37
2023-03-11T17:02:12.174Z,1.17
2023-03-11T17:04:38.842Z,1.90
2023-03-11T17:07:06.980Z,1.23
2023-03-11T17:09:35.238Z,1.60
2023-03-11T17:12:02.624Z,1.63
2023-03-11T17:14:29.356Z,1.23
2023-03-11T17:16:56.027Z,1.20
2023-03-11T17:19:23.997Z,1.47
2023-03-11T17:21:51.468Z,1.20
2023-03-11T17:24:18.346Z,2.00
2023-03-11T17:26:44.990Z,2.23
2023-03-11T17:29:11.648Z,1.83
2023-03-11T17:31:38.380Z,1.73
2023-03-11T17:34:05.022Z,1.53
2023-03-11T17:36:31.786Z,2.20
2023-03-11T17:38:58.421Z,2.57
2023-03-11T17:41:25.126Z,2.63
2023-03-11T17:43:51.785Z,2.23
2023-03-11T17:46:20.382Z,2.10
2023-03-11T17:48:49.085Z,2.20
2023-03-11T17:51:18.982Z,2.20
2023-03-11T17:53:46.633Z,2.37
2023-03-11T17:56:15.995Z,2.30
2023-03-11T17:58:42.683Z,2.40
2023-03-11T18:01:20.336Z,2.57
2023-03-11T18:03:47.530Z,3.20
2023-03-11T18:06:15.487Z,4.83
2023-03-11T18:08:42.130Z,4.23
2023-03-11T18:11:11.406Z,3.80
2023-03-11T18:13:39.866Z,3.47
2023-03-11T18:16:09.524Z,4.27
2023-03-11T18:18:37.351Z,6.50
2023-03-11T18:21:06.188Z,7.50
2023-03-11T18:23:33.345Z,6.03
2023-03-11T18:26:04.580Z,8.37
2023-03-11T18:28:31.861Z,6.17
2023-03-11T18:31:18.284Z,6.57
2023-03-11T18:33:53.973Z,5.60
2023-03-11T18:36:26.990Z,5.27
2023-03-11T18:38:55.260Z,6.83
2023-03-11T18:41:22.177Z,5.80
2023-03-11T18:43:53.783Z,9.57
2023-03-11T18:46:20.590Z,8.70
2023-03-11T18:48:47.283Z,5.73
2023-03-11T18:51:14.115Z,3.37
2023-03-11T18:53:42.836Z,3.97
2023-03-11T18:56:13.760Z,5.70
2023-03-11T18:58:40.672Z,5.47
2023-03-11T19:01:14.119Z,5.50
2023-03-11T19:03:48.504Z,5.80
2023-03-11T19:06:16.516Z,5.80
2023-03-11T19:08:43.553Z,5.70
2023-03-11T19:11:19.917Z,5.93
2023-03-11T19:13:48.080Z,6.70
2023-03-11T19:16:21.544Z,6.57
2023-03-11T19:18:48.366Z,6.60
2023-03-11T19:21:16.240Z,6.40
2023-03-11T19:23:44.229Z,6.27
2023-03-11T19:26:11.030Z,7.87
2023-03-11T19:28:37.765Z,32.60
2023-03-11T19:31:05.399Z,24.87
2023-03-11T19:33:32.500Z,21.10
2023-03-11T19:36:01.778Z,16.77
2023-03-11T19:38:29.143Z,12.83
2023-03-11T19:41:11.091Z,12.27
2023-03-11T19:43:37.866Z,8.07
2023-03-11T19:46:06.346Z,10.53
2023-03-11T19:48:33.733Z,11.53
2023-03-11T19:51:02.288Z,11.70
2023-03-11T19:53:29.253Z,10.37
2023-03-11T19:55:57.462Z,10.10
2023-03-11T19:58:28.636Z,9.60
2023-03-11T20:00:58.071Z,9.97
2023-03-11T20:03:24.993Z,9.50
2023-03-11T20:05:52.528Z,6.70
2023-03-11T20:08:20.939Z,11.00
2023-03-11T20:10:50.246Z,8.50
2023-03-11T20:13:20.114Z,7.70
2023-03-11T20:15:46.971Z,6.93
2023-03-11T20:18:13.698Z,7.80
2023-03-11T20:20:43.008Z,13.77
2023-03-11T20:23:10.173Z,12.40
2023-03-11T20:25:41.458Z,12.53
2023-03-11T20:28:08.714Z,6.60
2023-03-11T20:30:37.585Z,5.00
2023-03-11T20:33:04.441Z,4.87
2023-03-11T20:35:31.202Z,4.30
2023-03-11T20:37:59.310Z,4.00
2023-03-11T20:40:26.158Z,4.20
2023-03-11T20:42:52.957Z,3.67
2023-03-11T20:45:22.527Z,3.07
2023-03-11T20:47:50.425Z,3.03
2023-03-11T20:50:17.577Z,2.90
2023-03-11T20:52:44.718Z,2.93
2023-03-11T20:55:12.557Z,2.63
2023-03-11T20:57:39.820Z,3.40
2023-03-11T21:00:11.274Z,3.47
2023-03-11T21:02:42.856Z,11.43
2023-03-11T21:05:11.379Z,8.40
2023-03-11T21:07:38.541Z,7.13
2023-03-11T21:10:12.660Z,7.50
2023-03-11T21:12:39.465Z,6.10
2023-03-11T21:15:08.297Z,5.07
2023-03-11T21:17:35.913Z,3.60
2023-03-11T21:20:05.194Z,2.77
2023-03-11T21:22:32.813Z,3.00
2023-03-11T21:24:59.464Z,2.20
2023-03-11T21:27:26.665Z,2.40
2023-03-11T21:29:58.030Z,2.97
2023-03-11T21:32:26.743Z,2.83
2023-03-11T21:34:58.669Z,2.97
2023-03-11T21:37:26.187Z,3.43
2023-03-11T21:39:53.109Z,3.60
2023-03-11T21:42:20.206Z,3.73
2023-03-11T21:44:47.156Z,3.63
2023-03-11T21:47:13.981Z,3.90
2023-03-11T21:49:40.813Z,3.97
2023-03-11T21:52:07.568Z,3.73
2023-03-11T21:54:34.281Z,3.70
2023-03-11T21:57:01.186Z,4.20
2023-03-11T21:59:27.982Z,3.87
2023-03-11T22:01:54.776Z,4.00
2023-03-11T22:04:21.728Z,4.40
2023-03-11T22:06:48.539Z,4.23
2023-03-11T22:09:15.301Z,4.30
2023-03-11T22:11:42.131Z,4.10
2023-03-11T22:14:08.871Z,4.53
2023-03-11T22:16:35.726Z,4.47
2023-03-11T22:19:04.308Z,4.50
2023-03-11T22:21:31.021Z,4.20
2023-03-11T22:23:57.729Z,4.37
2023-03-11T22:26:24.369Z,3.80
2023-03-11T22:28:50.965Z,3.93
2023-03-11T22:31:18.890Z,4.10
2023-03-11T22:33:47.401Z,4.07
2023-03-11T22:36:14.381Z,3.87
2023-03-11T22:38:44.107Z,3.53
2023-03-11T22:41:13.270Z,3.80
2023-03-11T22:43:40.088Z,4.40
2023-03-11T22:46:07.003Z,4.40
2023-03-11T22:48:34.591Z,3.70
2023-03-11T22:51:01.943Z,4.00
2023-03-11T22:53:29.118Z,4.20
2023-03-11T22:55:55.914Z,4.07
2023-03-11T22:58:22.566Z,3.40
2023-03-11T23:00:49.260Z,2.83
2023-03-11T23:03:16.018Z,4.37
2023-03-11T23:05:43.203Z,3.93
2023-03-11T23:08:11.970Z,4.33
2023-03-11T23:10:44.447Z,4.20
2023-03-11T23:13:11.550Z,3.70
2023-03-11T23:15:41.860Z,3.13
2023-03-11T23:18:08.870Z,3.20
2023-03-11T23:20:37.229Z,2.83
2023-03-11T23:23:04.568Z,2.80
2023-03-11T23:25:32.185Z,2.67
2023-03-11T23:28:01.471Z,2.73
2023-03-11T23:30:28.966Z,2.87
2023-03-11T23:32:57.036Z,2.80
2023-03-11T23:35:24.279Z,2.93
2023-03-11T23:37:51.099Z,2.80
2023-03-11T23:40:18.573Z,2.70
2023-03-11T23:42:45.252Z,2.80
2023-03-11T23:45:11.995Z,2.70
2023-03-11T23:47:38.766Z,2.97
2023-03-11T23:50:06.048Z,2.70
2023-03-11T23:52:33.484Z,3.27
2023-03-11T23:55:00.421Z,2.90
2023-03-11T23:57:27.305Z,2.70
2023-03-11T23:59:53.970Z,3.20
